Time;durP1;ratioP1;P1;durP2;ratioP2;P2;SDS_P1;SDS_P2;PMS_P1;PMS_P2;Temp;Humidity;BMP_temperature;BMP_pressure;BME280_temperature;BME280_humidity;BME280_pressure;Samples;Min_cycle;Max_cycle;Signal;HPM_P1;HPM_P2
2022/04/15 00:00:14;;;;;;;8.37;7.67;;;19.10;28.40;;;;;;10381173;28;20218;-77
2022/04/15 00:05:34;;;;;;;8.90;8.20;;;19.10;28.50;;;;;;10378464;28;20229;-77
2022/04/15 00:10:39;;;;;;;9.47;8.67;;;19.10;28.80;;;;;;10382712;28;20260;-74
2022/04/15 00:15:44;;;;;;;8.73;7.93;;;19.00;28.60;;;;;;10378390;28;20236;-74
2022/04/15 00:20:48;;;;;;;8.47;7.80;;;18.80;29.00;;;;;;10376569;28;20273;-75
2022/04/15 00:25:51;;;;;;;9.07;8.00;;;18.70;29.80;;;;;;10374182;28;20225;-74
2022/04/15 00:30:55;;;;;;;8.17;7.57;;;18.50;29.60;;;;;;10377766;28;20769;-75
2022/04/15 00:35:59;;;;;;;9.00;8.30;;;18.40;29.70;;;;;;10378164;28;20237;-76
2022/04/15 00:41:03;;;;;;;9.03;7.47;;;18.20;30.60;;;;;;10374847;28;20340;-75
2022/04/15 00:46:07;;;;;;;7.77;7.17;;;18.10;30.00;;;;;;10382828;28;20238;-75
2022/04/15 00:51:12;;;;;;;8.10;7.10;;;18.10;30.70;;;;;;10376233;28;20292;-76
2022/04/15 00:56:16;;;;;;;7.87;7.27;;;18.00;31.40;;;;;;10381649;28;20244;-76
2022/04/15 01:01:20;;;;;;;9.60;8.80;;;18.00;30.80;;;;;;10382846;28;20275;-76
2022/04/15 01:06:29;;;;;;;8.47;7.87;;;18.00;31.20;;;;;;10378204;28;20240;-76
2022/04/15 01:11:34;;;;;;;8.83;8.03;;;17.90;32.80;;;;;;10371018;28;20228;-76
2022/04/15 01:16:38;;;;;;;9.97;9.07;;;17.90;32.30;;;;;;10380442;28;20222;-76
2022/04/15 01:21:43;;;;;;;10.20;9.27;;;17.80;31.90;;;;;;10386422;28;20247;-76
2022/04/15 01:26:47;;;;;;;9.40;8.67;;;17.80;32.80;;;;;;10387780;28;20221;-76
2022/04/15 01:31:50;;;;;;;10.17;9.30;;;17.60;32.80;;;;;;10394310;28;20244;-76
2022/04/15 01:36:54;;;;;;;9.77;8.97;;;17.40;32.50;;;;;;10386380;28;20222;-76
2022/04/15 01:41:59;;;;;;;9.63;8.90;;;17.30;32.80;;;;;;10382581;28;23492;-77
2022/04/15 01:47:02;;;;;;;10.17;9.27;;;17.40;33.70;;;;;;10385799;28;20237;-76
2022/04/15 01:52:06;;;;;;;9.07;8.37;;;17.30;33.20;;;;;;10380723;28;20740;-76
2022/04/15 01:57:11;;;;;;;9.87;9.10;;;17.40;33.50;;;;;;10386428;28;20232;-76
2022/04/15 02:02:14;;;;;;;11.47;10.57;;;17.30;34.20;;;;;;10384739;28;20234;-77
2022/04/15 02:07:18;;;;;;;12.63;11.53;;;17.30;33.40;;;;;;10385772;28;20572;-77
2022/04/15 02:12:22;;;;;;;13.03;12.00;;;17.30;33.70;;;;;;10386167;28;20245;-77
2022/04/15 02:17:25;;;;;;;12.37;11.23;;;17.30;34.10;;;;;;10384570;28;20232;-76
2022/04/15 02:22:29;;;;;;;12.50;11.50;;;17.30;34.10;;;;;;10384057;28;20617;-77
2022/04/15 02:27:33;;;;;;;12.03;11.10;;;17.30;34.20;;;;;;10384085;28;20230;-76
2022/04/15 02:32:36;;;;;;;11.80;10.70;;;17.30;34.40;;;;;;10385172;28;20262;-76
2022/04/15 02:37:41;;;;;;;12.47;11.53;;;17.30;34.10;;;;;;10381567;28;20233;-76
2022/04/15 02:42:46;;;;;;;12.73;11.63;;;17.30;35.00;;;;;;10383016;28;20240;-77
2022/04/15 02:47:54;;;;;;;12.60;11.60;;;17.30;35.20;;;;;;10386929;28;20237;-76
2022/04/15 02:52:58;;;;;;;12.60;11.60;;;17.30;34.10;;;;;;10384237;28;20238;-76
2022/04/15 02:58:04;;;;;;;12.93;11.80;;;17.30;34.50;;;;;;10380493;28;20910;-76
2022/04/15 03:03:07;;;;;;;13.00;11.90;;;17.30;35.40;;;;;;10381232;28;20229;-76
2022/04/15 03:08:11;;;;;;;12.67;11.67;;;17.20;34.70;;;;;;10387336;28;20226;-76
2022/04/15 03:13:15;;;;;;;12.83;11.73;;;17.10;34.60;;;;;;10381601;28;20240;-76
2022/04/15 03:18:18;;;;;;;12.50;11.40;;;17.10;35.60;;;;;;10388228;28;20226;-76
2022/04/15 03:23:22;;;;;;;13.00;11.80;;;17.10;34.90;;;;;;10380692;28;20234;-76
2022/04/15 03:28:26;;;;;;;11.60;10.70;;;17.10;35.10;;;;;;10384136;28;20606;-76
2022/04/15 03:33:30;;;;;;;12.03;10.97;;;17.10;35.90;;;;;;10380334;28;20232;-77
2022/04/15 03:38:34;;;;;;;12.17;11.17;;;17.10;35.10;;;;;;10382467;28;20233;-76
2022/04/15 03:43:41;;;;;;;12.00;11.00;;;17.10;35.00;;;;;;10380794;28;20785;-76
2022/04/15 03:48:45;;;;;;;13.07;12.00;;;17.10;35.80;;;;;;10380617;28;20923;-76
2022/04/15 03:53:48;;;;;;;11.53;10.63;;;17.10;35.20;;;;;;10377814;28;20244;-76
2022/04/15 03:58:52;;;;;;;13.70;12.33;;;17.00;35.10;;;;;;10379470;28;20226;-77
2022/04/15 04:03:55;;;;;;;12.97;11.93;;;17.00;36.00;;;;;;10376994;28;20226;-77
2022/04/15 04:08:59;;;;;;;12.37;11.37;;;16.90;35.30;;;;;;10379281;28;20226;-76
2022/04/15 04:14:03;;;;;;;13.40;12.33;;;16.90;35.30;;;;;;10374961;28;20679;-76
2022/04/15 04:19:06;;;;;;;10.70;9.90;;;16.90;36.20;;;;;;10379209;28;20232;-76
2022/04/15 04:24:09;;;;;;;11.30;10.40;;;16.90;35.30;;;;;;10378959;28;20245;-76
2022/04/15 04:29:14;;;;;;;15.67;14.37;;;16.90;36.20;;;;;;10380230;28;20245;-76
2022/04/15 04:34:17;;;;;;;15.90;14.60;;;16.80;36.00;;;;;;10376485;28;20236;-76
2022/04/15 04:39:23;;;;;;;17.27;15.83;;;16.70;35.10;;;;;;10379899;28;20607;-76
2022/04/15 04:44:28;;;;;;;19.40;17.63;;;16.70;35.20;;;;;;10383996;28;20616;-76
2022/04/15 04:49:31;;;;;;;15.53;14.13;;;16.60;36.00;;;;;;10382422;28;20593;-76
2022/04/15 04:54:35;;;;;;;13.97;12.73;;;16.60;35.40;;;;;;10380148;28;20234;-76
2022/04/15 04:59:39;;;;;;;15.20;13.90;;;16.60;35.70;;;;;;10384558;28;20606;-76
2022/04/15 05:04:43;;;;;;;16.20;14.73;;;16.50;36.30;;;;;;10379916;28;20323;-77
2022/04/15 05:09:46;;;;;;;15.77;14.47;;;16.50;35.70;;;;;;10385811;28;20218;-76
2022/04/15 05:14:51;;;;;;;15.70;14.40;;;16.40;35.70;;;;;;10377163;28;20248;-76
2022/04/15 05:19:54;;;;;;;16.70;15.20;;;16.30;36.40;;;;;;10378353;28;21116;-76
2022/04/15 05:24:57;;;;;;;16.27;14.83;;;16.30;36.10;;;;;;10383138;28;20226;-76
2022/04/15 05:30:01;;;;;;;15.83;14.33;;;16.20;36.10;;;;;;10377702;28;20589;-76
2022/04/15 05:35:05;;;;;;;16.33;14.63;;;16.10;36.90;;;;;;10379383;28;20241;-76
2022/04/15 05:40:10;;;;;;;18.47;16.80;;;16.10;36.50;;;;;;10380213;28;20223;-76
2022/04/15 05:45:14;;;;;;;19.90;18.00;;;16.00;37.00;;;;;;10379819;28;20232;-76
2022/04/15 05:50:18;;;;;;;20.93;19.03;;;16.00;37.30;;;;;;10376604;28;20237;-76
2022/04/15 05:55:21;;;;;;;20.10;18.20;;;16.00;36.80;;;;;;10375042;28;20594;-76
2022/04/15 06:00:26;;;;;;;18.03;16.40;;;16.00;36.70;;;;;;10374364;28;20237;-76
2022/04/15 06:05:30;;;;;;;18.77;17.07;;;16.00;37.40;;;;;;10375939;28;20233;-76
2022/04/15 06:10:33;;;;;;;19.90;18.10;;;16.00;36.90;;;;;;10385581;28;20272;-77
2022/04/15 06:15:41;;;;;;;19.40;17.67;;;16.10;37.10;;;;;;10380170;28;20240;-77
2022/04/15 06:20:44;;;;;;;20.00;18.10;;;16.10;37.70;;;;;;10386723;28;20246;-77
2022/04/15 06:25:48;;;;;;;19.40;17.60;;;16.20;37.30;;;;;;10384000;28;20230;-77
2022/04/15 06:30:54;;;;;;;18.53;16.83;;;16.30;37.60;;;;;;10378946;28;20227;-77
2022/04/15 06:35:57;;;;;;;17.50;15.97;;;16.40;38.10;;;;;;10383253;28;20230;-77
2022/04/15 06:41:01;;;;;;;19.00;17.23;;;16.40;37.50;;;;;;10379877;28;20214;-77
2022/04/15 06:46:07;;;;;;;19.63;17.83;;;16.50;37.60;;;;;;10380026;28;20316;-76
2022/04/15 06:51:10;;;;;;;20.17;18.27;;;16.50;38.10;;;;;;10384858;28;20236;-76
2022/04/15 06:56:14;;;;;;;19.70;17.97;;;16.60;37.50;;;;;;10382061;28;20225;-76
2022/04/15 07:01:19;;;;;;;19.60;17.90;;;16.60;37.40;;;;;;10382890;28;20575;-76
2022/04/15 07:06:22;;;;;;;18.53;16.83;;;16.60;38.10;;;;;;10385592;28;20236;-77
2022/04/15 07:11:25;;;;;;;19.27;17.50;;;16.60;37.70;;;;;;10385632;28;20705;-77
2022/04/15 07:16:30;;;;;;;17.33;15.73;;;16.60;37.80;;;;;;10380368;28;20230;-77
2022/04/15 07:21:33;;;;;;;17.13;15.63;;;16.70;38.30;;;;;;10378003;28;20283;-77
2022/04/15 07:26:37;;;;;;;17.53;15.83;;;16.80;38.10;;;;;;10379712;28;20693;-77
2022/04/15 07:31:42;;;;;;;17.50;15.90;;;16.90;38.30;;;;;;10379256;28;20599;-77
2022/04/15 07:36:53;;;;;;;16.50;15.00;;;16.90;38.50;;;;;;10374494;28;20233;-77
2022/04/15 07:41:57;;;;;;;15.90;14.50;;;16.90;38.30;;;;;;10383720;28;20675;-77
2022/04/15 07:47:02;;;;;;;14.90;13.67;;;17.10;38.40;;;;;;10380484;28;20324;-77
2022/04/15 07:52:06;;;;;;;13.13;12.03;;;17.20;38.70;;;;;;10381665;28;20674;-77
2022/04/15 07:57:09;;;;;;;13.00;11.90;;;17.40;38.30;;;;;;10377355;28;20263;-77
2022/04/15 08:02:14;;;;;;;12.73;11.63;;;17.60;38.20;;;;;;10384775;28;20240;-77
2022/04/15 08:07:18;;;;;;;13.30;12.10;;;17.70;38.40;;;;;;10380405;28;20241;-77
2022/04/15 08:12:21;;;;;;;12.63;11.33;;;17.90;37.80;;;;;;10379043;28;20237;-77
2022/04/15 08:17:26;;;;;;;14.13;12.83;;;18.20;37.60;;;;;;10374890;28;20232;-77
2022/04/15 08:22:34;;;;;;;13.23;11.93;;;18.40;38.60;;;;;;10376740;28;21296;-77
2022/04/15 08:27:37;;;;;;;12.50;11.33;;;18.60;37.70;;;;;;10374518;28;20233;-77
2022/04/15 08:32:41;;;;;;;11.50;10.50;;;18.80;37.00;;;;;;10379398;28;20237;-77
2022/04/15 08:37:45;;;;;;;11.40;10.40;;;19.00;36.70;;;;;;10374989;28;20233;-77
2022/04/15 08:42:48;;;;;;;11.67;10.57;;;19.10;36.70;;;;;;10375833;28;20226;-77
2022/04/15 08:47:57;;;;;;;10.53;9.63;;;19.30;36.60;;;;;;10381563;28;20230;-76
2022/04/15 08:53:02;;;;;;;11.33;10.30;;;19.50;36.10;;;;;;10375305;28;20257;-77
2022/04/15 08:58:05;;;;;;;10.27;9.33;;;19.80;36.30;;;;;;10372193;28;20253;-76
2022/04/15 09:03:11;;;;;;;10.30;9.30;;;20.00;36.20;;;;;;10369018;28;20752;-76
2022/04/15 09:08:14;;;;;;;10.40;9.40;;;20.20;35.40;;;;;;10372677;28;20329;-76
2022/04/15 09:13:21;;;;;;;11.10;10.20;;;20.40;35.60;;;;;;10376109;28;20234;-77
2022/04/15 09:18:37;;;;;;;11.43;10.43;;;20.70;34.50;;;;;;10371053;28;20309;-76
2022/04/15 09:23:47;;;;;;;11.23;10.13;;;20.80;34.10;;;;;;10372530;28;20287;-77
2022/04/15 09:28:53;;;;;;;10.17;9.27;;;20.90;34.50;;;;;;10376013;28;20245;-77
2022/04/15 09:33:58;;;;;;;9.33;8.53;;;21.00;34.40;;;;;;10376881;28;20233;-77
2022/04/15 09:39:10;;;;;;;11.07;9.57;;;21.10;33.20;;;;;;10376168;28;20224;-74
2022/04/15 09:44:14;;;;;;;10.00;9.10;;;21.20;32.60;;;;;;10384319;28;21010;-76
2022/04/15 09:49:18;;;;;;;10.03;9.13;;;21.30;32.70;;;;;;10386286;28;20225;-76
2022/04/15 09:54:24;;;;;;;10.43;9.50;;;21.40;32.70;;;;;;10380220;28;20585;-77
2022/04/15 09:59:28;;;;;;;10.67;9.70;;;21.50;32.60;;;;;;10385110;28;20229;-77
2022/04/15 10:04:34;;;;;;;10.33;9.33;;;21.60;31.90;;;;;;10381560;28;20230;-77
2022/04/15 10:09:39;;;;;;;9.37;8.57;;;21.70;31.70;;;;;;10381330;28;20249;-76
2022/04/15 10:14:42;;;;;;;9.80;8.87;;;21.80;30.90;;;;;;10384691;28;20230;-77
2022/04/15 10:19:48;;;;;;;9.57;8.70;;;21.80;30.40;;;;;;10382569;28;20238;-77
2022/04/15 10:24:51;;;;;;;9.73;8.93;;;21.70;30.50;;;;;;10380645;28;20237;-76
2022/04/15 10:30:02;;;;;;;10.40;9.50;;;21.70;30.80;;;;;;10380212;28;20234;-77
2022/04/15 10:35:08;;;;;;;8.63;7.93;;;21.50;29.70;;;;;;10378100;28;20233;-76
2022/04/15 10:40:23;;;;;;;10.00;9.20;;;21.50;30.50;;;;;;10385029;28;20268;-76
2022/04/15 10:45:27;;;;;;;9.50;8.70;;;21.50;30.30;;;;;;10379749;28;20225;-76
2022/04/15 10:50:33;;;;;;;9.77;8.97;;;21.50;30.90;;;;;;10381868;28;20225;-76
2022/04/15 10:55:43;;;;;;;8.87;8.17;;;21.60;31.00;;;;;;10377203;28;20222;-77
2022/04/15 11:01:16;;;;;;;9.37;8.47;;;21.70;30.60;;;;;;10378521;28;20234;-76
2022/04/15 11:06:28;;;;;;;9.60;8.80;;;21.70;31.10;;;;;;10379830;28;20634;-77
2022/04/15 11:11:36;;;;;;;10.57;9.67;;;21.80;30.40;;;;;;10376030;28;20721;-77
2022/04/15 11:16:41;;;;;;;10.10;9.20;;;21.80;31.10;;;;;;10377341;28;20230;-77
2022/04/15 11:21:50;;;;;;;9.13;8.43;;;21.70;30.60;;;;;;10380953;28;20594;-77
2022/04/15 11:27:03;;;;;;;10.10;9.20;;;21.70;30.10;;;;;;10376277;28;20270;-77
2022/04/15 11:32:07;;;;;;;9.83;8.47;;;21.70;30.00;;;;;;10379200;28;20226;-76
2022/04/15 11:37:12;;;;;;;7.60;7.00;;;21.60;30.10;;;;;;10381456;28;20808;-76
2022/04/15 11:42:17;;;;;;;6.27;5.77;;;21.60;29.50;;;;;;10379801;28;20233;-76
2022/04/15 11:47:21;;;;;;;6.30;5.70;;;21.70;29.40;;;;;;10382767;28;20233;-77
2022/04/15 11:52:27;;;;;;;5.30;4.70;;;21.60;29.10;;;;;;10374884;28;20789;-77
2022/04/15 11:57:32;;;;;;;5.30;4.90;;;21.50;28.50;;;;;;10376742;28;20595;-77
2022/04/15 12:02:35;;;;;;;4.63;4.33;;;21.50;29.20;;;;;;10382318;28;20244;-77
2022/04/15 12:07:39;;;;;;;4.77;4.37;;;21.60;29.20;;;;;;10379969;28;20234;-77
2022/04/15 12:12:43;;;;;;;3.47;3.17;;;21.80;28.30;;;;;;10382214;28;20599;-77
2022/04/15 12:17:47;;;;;;;4.13;3.73;;;21.80;28.00;;;;;;10378891;28;20226;-76
2022/04/15 12:22:52;;;;;;;3.70;3.40;;;21.90;27.90;;;;;;10383566;28;20236;-77
2022/04/15 12:29:47;;;;;;;3.57;3.27;;;21.90;27.50;;;;;;10377054;28;20222;-77
2022/04/15 12:33:47;;;;;;;4.10;3.80;;;21.90;26.60;;;;;;10380922;28;20225;-77
2022/04/15 12:39:02;;;;;;;3.87;3.67;;;21.90;27.70;;;;;;10377967;28;20263;-77
2022/04/15 12:44:19;;;;;;;3.80;3.50;;;21.90;26.60;;;;;;10374139;28;20225;-76
2022/04/15 12:49:30;;;;;;;3.80;3.40;;;22.00;26.70;;;;;;10378663;28;20229;-76
2022/04/15 12:54:34;;;;;;;4.00;3.70;;;22.10;26.70;;;;;;10371270;28;20683;-77
2022/04/15 12:59:38;;;;;;;3.90;3.60;;;22.20;26.60;;;;;;10374553;28;20229;-77
2022/04/15 13:04:48;;;;;;;4.03;3.53;;;22.30;26.90;;;;;;10374454;28;20229;-77
2022/04/15 13:09:53;;;;;;;4.20;3.80;;;22.30;26.90;;;;;;10375135;28;20238;-77
2022/04/15 13:15:16;;;;;;;3.27;3.07;;;22.30;26.80;;;;;;10374557;28;20233;-76
2022/04/15 13:20:19;;;;;;;4.63;4.10;;;22.20;26.80;;;;;;10386757;28;20242;-77
2022/04/15 13:25:24;;;;;;;3.53;3.23;;;22.20;26.80;;;;;;10384028;28;20740;-77
2022/04/15 13:30:27;;;;;;;4.73;4.33;;;22.20;26.80;;;;;;10376852;28;20237;-77
2022/04/15 13:35:30;;;;;;;4.30;4.00;;;22.20;26.80;;;;;;10382742;28;20230;-77
2022/04/15 13:40:38;;;;;;;3.47;3.27;;;22.20;26.70;;;;;;10383265;28;20724;-77
2022/04/15 13:45:41;;;;;;;3.50;3.20;;;22.30;26.20;;;;;;10383148;28;20237;-77
2022/04/15 13:50:44;;;;;;;3.13;2.80;;;22.30;26.90;;;;;;10383017;28;20590;-77
2022/04/15 14:01:23;;;;;;;3.00;2.80;;;22.50;25.90;;;;;;10383379;28;20222;-76
2022/04/15 14:06:27;;;;;;;2.90;2.70;;;22.50;26.50;;;;;;10382600;28;20221;-77
2022/04/15 14:11:33;;;;;;;3.30;3.10;;;22.60;25.90;;;;;;10382034;28;20691;-77
2022/04/15 14:16:36;;;;;;;2.97;2.77;;;22.60;25.60;;;;;;10385140;28;20222;-77
2022/04/15 14:21:41;;;;;;;2.70;2.50;;;22.70;26.00;;;;;;10381909;28;20316;-77
2022/04/15 14:26:46;;;;;;;4.13;3.80;;;22.80;25.50;;;;;;10375679;28;20226;-77
2022/04/15 14:31:50;;;;;;;3.90;3.60;;;22.90;24.90;;;;;;10384871;28;20245;-77
2022/04/15 14:36:53;;;;;;;3.20;3.00;;;22.90;24.90;;;;;;10384664;28;20669;-77
2022/04/15 14:41:58;;;;;;;2.83;2.63;;;22.90;25.30;;;;;;10383868;28;20225;-77
2022/04/15 14:47:01;;;;;;;2.87;2.67;;;22.80;24.60;;;;;;10378014;28;20232;-76
2022/04/15 14:52:06;;;;;;;2.90;2.70;;;22.70;24.50;;;;;;10374077;28;20229;-76
2022/04/15 14:57:10;;;;;;;3.27;2.97;;;22.70;24.20;;;;;;10379992;28;20237;-76
2022/04/15 15:02:14;;;;;;;2.83;2.63;;;22.60;23.10;;;;;;10378739;28;20226;-76
2022/04/15 15:07:17;;;;;;;3.30;3.00;;;22.50;23.70;;;;;;10381317;28;20234;-77
2022/04/15 15:12:22;;;;;;;2.93;2.67;;;22.40;23.50;;;;;;10379353;28;20226;-77
2022/04/15 15:17:26;;;;;;;2.60;2.40;;;22.30;23.20;;;;;;10383531;28;20344;-77
2022/04/15 15:22:29;;;;;;;3.07;2.60;;;22.30;23.50;;;;;;10378956;28;20233;-77
2022/04/15 15:32:54;;;;;;;2.20;2.00;;;22.20;23.30;;;;;;10378529;28;20707;-77
2022/04/15 15:37:58;;;;;;;2.63;2.43;;;22.20;23.50;;;;;;10383503;28;20718;-77
2022/04/15 15:43:04;;;;;;;3.80;2.80;;;22.20;23.10;;;;;;10378375;28;20229;-77
2022/04/15 15:48:09;;;;;;;3.23;2.90;;;22.20;22.20;;;;;;10380458;28;20234;-77
2022/04/15 15:53:12;;;;;;;2.63;2.43;;;22.20;22.30;;;;;;10380799;28;20233;-77
2022/04/15 15:58:17;;;;;;;2.10;1.90;;;22.10;22.50;;;;;;10380551;28;20226;-77
2022/04/15 16:03:20;;;;;;;2.43;2.23;;;22.00;22.80;;;;;;10375674;28;20728;-77
2022/04/15 16:08:23;;;;;;;2.57;2.37;;;21.90;22.70;;;;;;10375655;28;20238;-77
2022/04/15 16:13:28;;;;;;;2.30;2.10;;;22.00;22.60;;;;;;10376252;28;20228;-77
2022/04/15 16:18:31;;;;;;;2.30;2.13;;;21.90;22.20;;;;;;10378319;28;20226;-77
2022/04/15 16:23:35;;;;;;;2.00;1.90;;;21.90;22.40;;;;;;10378025;28;20225;-77
2022/04/15 16:28:39;;;;;;;2.90;2.40;;;21.90;22.70;;;;;;10376818;28;20225;-77
2022/04/15 16:33:44;;;;;;;1.80;1.70;;;21.90;22.00;;;;;;10377281;28;20226;-77
2022/04/15 16:38:47;;;;;;;1.67;1.57;;;21.90;22.60;;;;;;10381745;28;20803;-77
2022/04/15 16:43:51;;;;;;;2.57;1.60;;;21.90;22.70;;;;;;10371763;28;20234;-77
2022/04/15 16:48:55;;;;;;;1.93;1.80;;;21.90;22.50;;;;;;10376218;28;20237;-77
2022/04/15 16:53:58;;;;;;;1.70;1.60;;;21.90;22.50;;;;;;10378190;28;20222;-77
2022/04/15 16:59:03;;;;;;;1.60;1.50;;;21.80;22.70;;;;;;10374561;28;20707;-77
2022/04/15 17:04:08;;;;;;;1.63;1.40;;;21.80;22.40;;;;;;10378325;28;20702;-77
2022/04/15 17:09:11;;;;;;;1.60;1.30;;;21.70;22.40;;;;;;10379658;28;20226;-77
2022/04/15 17:14:16;;;;;;;2.20;1.20;;;21.60;22.30;;;;;;10380439;28;20233;-78
2022/04/15 17:19:19;;;;;;;1.37;1.03;;;21.50;22.50;;;;;;10377672;28;20853;-77
2022/04/15 17:24:22;;;;;;;1.53;1.20;;;21.50;22.60;;;;;;10375623;28;20244;-77
2022/04/15 17:29:28;;;;;;;1.07;0.97;;;21.40;22.70;;;;;;10377675;28;20236;-77
2022/04/15 17:34:31;;;;;;;1.20;1.10;;;21.40;22.60;;;;;;10375209;28;20241;-77
2022/04/15 17:39:34;;;;;;;1.10;1.00;;;21.30;22.50;;;;;;10375724;28;20223;-77
2022/04/15 17:44:39;;;;;;;1.63;1.10;;;21.20;22.40;;;;;;10377382;28;20229;-77
2022/04/15 17:49:42;;;;;;;1.10;1.10;;;21.10;22.50;;;;;;10374097;28;20249;-77
2022/04/15 17:54:45;;;;;;;1.00;1.00;;;21.10;22.80;;;;;;10376738;28;20645;-77
2022/04/15 17:59:49;;;;;;;1.27;1.00;;;21.00;22.70;;;;;;10379236;28;20598;-78
2022/04/15 18:04:53;;;;;;;0.80;0.80;;;20.90;23.10;;;;;;10387423;28;20222;-77
2022/04/15 18:09:56;;;;;;;1.17;1.00;;;20.70;22.80;;;;;;10383414;28;20231;-77
2022/04/15 18:15:01;;;;;;;1.50;1.17;;;20.60;22.80;;;;;;10379221;28;20230;-77
2022/04/15 18:20:05;;;;;;;1.40;1.07;;;20.50;22.80;;;;;;10382609;28;20215;-77
2022/04/15 18:25:09;;;;;;;1.27;0.90;;;20.30;22.90;;;;;;10382964;28;20226;-77
2022/04/15 18:30:14;;;;;;;1.43;1.03;;;20.20;23.00;;;;;;10382396;28;20701;-77
2022/04/15 18:35:18;;;;;;;1.17;1.17;;;20.10;22.90;;;;;;10385821;28;20241;-77
2022/04/15 18:40:21;;;;;;;1.30;1.20;;;19.90;23.10;;;;;;10382924;28;20226;-77
2022/04/15 18:45:29;;;;;;;1.20;1.10;;;19.80;23.20;;;;;;10382191;28;20226;-77
2022/04/15 18:55:52;;;;;;;2.90;2.20;;;19.50;23.30;;;;;;10363786;28;20585;-78
2022/04/15 19:00:58;;;;;;;3.67;3.00;;;19.40;24.00;;;;;;10382022;28;20234;-77
2022/04/15 19:06:02;;;;;;;3.53;3.23;;;19.20;24.70;;;;;;10381585;28;20291;-75
2022/04/15 19:11:05;;;;;;;3.50;3.00;;;18.90;24.60;;;;;;10386130;28;20702;-77
2022/04/15 19:16:09;;;;;;;3.90;3.60;;;18.70;24.40;;;;;;10377767;28;20238;-77
2022/04/15 19:21:13;;;;;;;4.30;3.90;;;18.50;24.80;;;;;;10380191;28;20229;-77
2022/04/15 19:26:17;;;;;;;4.27;3.97;;;18.30;24.70;;;;;;10373902;28;20222;-77
2022/04/15 19:31:22;;;;;;;4.13;3.83;;;18.10;24.80;;;;;;10381193;28;20230;-77
2022/04/15 19:36:25;;;;;;;4.00;3.70;;;18.00;25.20;;;;;;10379777;28;20237;-77
2022/04/15 19:41:29;;;;;;;4.30;4.00;;;17.80;25.20;;;;;;10387041;28;20225;-77
2022/04/15 19:46:33;;;;;;;4.10;3.80;;;17.60;25.30;;;;;;10383170;28;20718;-77
2022/04/15 19:51:36;;;;;;;4.60;3.83;;;17.40;25.60;;;;;;10388320;28;20221;-77
2022/04/15 20:02:27;;;;;;;3.87;3.57;;;17.20;25.60;;;;;;10334622;28;20230;-77
2022/04/15 20:07:31;;;;;;;3.80;3.50;;;17.10;25.90;;;;;;10385965;28;20222;-77
2022/04/15 20:12:35;;;;;;;4.30;4.00;;;17.00;25.70;;;;;;10379549;28;20249;-77
2022/04/15 20:17:39;;;;;;;4.17;3.87;;;16.80;25.70;;;;;;10379359;28;20233;-77
2022/04/15 20:22:43;;;;;;;3.47;3.17;;;16.70;25.90;;;;;;10381219;28;20222;-77
2022/04/15 20:27:46;;;;;;;3.43;3.07;;;16.60;25.80;;;;;;10379532;28;20234;-77
2022/04/15 20:32:51;;;;;;;3.17;2.97;;;16.50;25.80;;;;;;10381146;28;20222;-77
2022/04/15 20:37:55;;;;;;;3.00;2.80;;;16.30;26.00;;;;;;10375996;28;20234;-78
2022/04/15 20:42:58;;;;;;;3.20;2.97;;;16.20;25.90;;;;;;10375704;28;20256;-77
2022/04/15 20:49:50;;;;;;;2.63;2.40;;;16.00;25.80;;;;;;10379483;28;20241;-77
2022/04/15 20:53:26;;;;;;;2.60;2.40;;;15.80;26.00;;;;;;10379498;28;20225;-77
2022/04/15 20:58:30;;;;;;;2.53;2.33;;;15.70;25.90;;;;;;10377718;28;20236;-77
2022/04/15 21:03:34;;;;;;;2.33;2.23;;;15.60;26.00;;;;;;10372514;28;20702;-78
2022/04/15 21:08:37;;;;;;;2.27;2.17;;;15.40;26.20;;;;;;10382776;28;20237;-77
2022/04/15 21:13:42;;;;;;;1.93;1.83;;;15.40;26.10;;;;;;10378648;28;20310;-77
2022/04/15 21:18:47;;;;;;;2.03;1.90;;;15.30;26.10;;;;;;10379625;28;20764;-77
2022/04/15 21:23:50;;;;;;;2.40;2.20;;;15.10;26.10;;;;;;10374153;28;20229;-78
2022/04/15 21:28:53;;;;;;;2.30;2.00;;;15.00;26.10;;;;;;10385362;28;20223;-77
2022/04/15 21:33:57;;;;;;;1.80;1.70;;;15.00;26.20;;;;;;10374908;28;20230;-79
2022/04/15 21:39:01;;;;;;;1.90;1.80;;;14.90;26.40;;;;;;10385423;28;20230;-77
2022/04/15 21:44:04;;;;;;;1.90;1.80;;;14.90;26.30;;;;;;10383522;28;20222;-77
2022/04/15 21:49:11;;;;;;;2.07;1.97;;;14.90;26.40;;;;;;10381956;28;20234;-77
2022/04/15 21:54:15;;;;;;;2.10;2.00;;;14.90;26.60;;;;;;10382002;28;20261;-77
2022/04/15 21:59:18;;;;;;;2.40;2.20;;;14.90;26.40;;;;;;10386957;28;20245;-77
2022/04/15 22:04:23;;;;;;;1.90;1.80;;;14.90;26.50;;;;;;10384008;28;20312;-77
2022/04/15 22:09:26;;;;;;;2.10;1.90;;;14.80;26.50;;;;;;10382096;28;20725;-78
2022/04/15 22:14:32;;;;;;;1.97;1.87;;;14.80;26.30;;;;;;10388673;28;20606;-77
2022/04/15 22:19:39;;;;;;;1.90;1.80;;;14.70;26.30;;;;;;10380753;28;20234;-77
2022/04/15 22:24:45;;;;;;;2.00;1.90;;;14.70;26.80;;;;;;10384924;28;20214;-77
2022/04/15 22:29:48;;;;;;;2.37;2.17;;;14.60;26.50;;;;;;10388833;28;20323;-77
2022/04/15 22:34:53;;;;;;;2.03;1.93;;;14.60;26.50;;;;;;10385231;28;20238;-77
2022/04/15 22:39:56;;;;;;;2.10;2.00;;;14.50;26.50;;;;;;10378640;28;20272;-77
2022/04/15 22:45:00;;;;;;;2.17;2.00;;;14.40;26.30;;;;;;10385984;28;20229;-77
2022/04/15 22:50:05;;;;;;;2.40;2.20;;;14.20;26.40;;;;;;10387321;28;20237;-77
2022/04/15 23:00:32;;;;;;;3.30;1.97;;;14.00;27.10;;;;;;10383531;28;20236;-78
2022/04/15 23:05:37;;;;;;;2.00;1.90;;;14.00;26.90;;;;;;10381309;28;20740;-77
2022/04/15 23:10:40;;;;;;;2.13;2.03;;;14.00;27.10;;;;;;10384768;28;20227;-78
2022/04/15 23:15:43;;;;;;;2.40;2.20;;;13.90;27.00;;;;;;10383045;28;20226;-77
2022/04/15 23:20:47;;;;;;;2.40;2.20;;;13.90;26.90;;;;;;10379775;28;20635;-77
2022/04/15 23:25:52;;;;;;;2.43;2.23;;;13.90;27.10;;;;;;10377989;28;20226;-77
2022/04/15 23:30:56;;;;;;;2.90;2.37;;;13.80;27.00;;;;;;10385008;28;20893;-77
2022/04/15 23:36:00;;;;;;;2.80;2.60;;;13.70;27.00;;;;;;10382087;28;20226;-77
2022/04/15 23:41:03;;;;;;;2.70;2.50;;;13.70;27.20;;;;;;10379476;28;20226;-77
2022/04/15 23:51:28;;;;;;;2.53;2.33;;;13.60;27.00;;;;;;10381335;28;20245;-77
2022/04/15 23:56:31;;;;;;;2.60;2.40;;;13.50;27.20;;;;;;10383112;28;20240;-77
